Skiathos, Greece
Current Conditions -  °F | °C
As of 1:20 PM on Thursday 27 Nov 2014 (Local Time) from LGBL Reporting Station
Drizzle Drizzle  
Wind Chill: 46°   Ceiling: 2500
Heat Index: 48°   Visibility: 1.2mi
Dew Point: 46°   Wind: 5mph
Humidity: 93%   Direction: 310°NW
Pressure: 30.18"   Gusts: NA
Location:  39.17°N, 23.48°E
Report Text: LGBL 271020Z 31004KT 2000 DZ SCT015 OVC025 09/08 Q1022
Loading
Personal Weather Stations






























Interactive Weather Map New forecast layout! Learn more

10-Day Weather Forecast

Advertisements
Track Severe Weather on mobile